createdAt,value
2024-01-19T00:00:19.474Z,23.80
2024-01-19T00:01:51.739Z,23.10
2024-01-19T00:03:23.901Z,27.60
2024-01-19T00:04:56.452Z,28.70
2024-01-19T00:06:28.440Z,27.90
2024-01-19T00:08:00.588Z,25.30
2024-01-19T00:09:33.250Z,29.00
2024-01-19T00:11:06.678Z,31.60
2024-01-19T00:12:38.908Z,25.40
2024-01-19T00:14:10.857Z,26.00
2024-01-19T00:15:43.295Z,27.30
2024-01-19T00:17:15.442Z,31.10
2024-01-19T00:18:47.408Z,27.10
2024-01-19T00:20:19.457Z,25.10
2024-01-19T00:21:51.915Z,25.70
2024-01-19T00:23:23.853Z,21.50
2024-01-19T00:24:57.225Z,22.50
2024-01-19T00:26:29.814Z,21.80
2024-01-19T00:28:01.808Z,27.20
2024-01-19T00:29:33.812Z,23.50
2024-01-19T00:31:06.713Z,19.90
2024-01-19T00:32:39.772Z,24.80
2024-01-19T00:34:11.758Z,19.80
2024-01-19T00:35:44.180Z,19.10
2024-01-19T00:37:16.278Z,22.30
2024-01-19T00:38:48.228Z,24.90
2024-01-19T00:40:20.224Z,27.90
2024-01-19T00:41:52.255Z,20.10
2024-01-19T00:43:24.301Z,26.20
2024-01-19T00:44:56.537Z,26.60
2024-01-19T00:46:30.164Z,27.00
2024-01-19T00:48:02.291Z,26.20
2024-01-19T00:49:35.791Z,25.90
2024-01-19T00:51:07.910Z,31.00
2024-01-19T00:52:39.881Z,29.80
2024-01-19T00:54:12.328Z,25.50
2024-01-19T00:55:44.256Z,36.40
2024-01-19T00:57:16.210Z,24.80
2024-01-19T00:58:48.733Z,34.90
2024-01-19T01:00:20.961Z,33.20
2024-01-19T01:01:52.958Z,34.50
2024-01-19T01:03:26.707Z,40.40
2024-01-19T01:04:59.570Z,44.10
2024-01-19T01:06:33.098Z,41.40
2024-01-19T01:08:07.033Z,48.90
2024-01-19T01:09:39.976Z,46.90
2024-01-19T01:11:11.917Z,49.20
2024-01-19T01:12:43.910Z,42.50
2024-01-19T01:14:16.876Z,53.60
2024-01-19T01:15:50.097Z,53.00
2024-01-19T01:17:22.113Z,49.60
2024-01-19T01:18:54.023Z,51.60
2024-01-19T01:20:26.307Z,44.80
2024-01-19T01:21:58.273Z,48.40
2024-01-19T01:23:30.267Z,46.10
2024-01-19T01:25:02.187Z,37.40
2024-01-19T01:26:34.320Z,41.80
2024-01-19T01:28:06.337Z,50.40
2024-01-19T01:29:38.277Z,42.10
2024-01-19T01:31:11.144Z,28.30
2024-01-19T01:32:43.286Z,46.60
2024-01-19T01:34:15.375Z,51.50
2024-01-19T01:35:47.414Z,47.80
2024-01-19T01:37:19.308Z,43.00
2024-01-19T01:38:51.344Z,39.30
2024-01-19T01:40:23.530Z,44.10
2024-01-19T01:41:55.577Z,43.30
2024-01-19T01:43:28.534Z,38.60
2024-01-19T01:45:01.931Z,37.40
2024-01-19T01:46:34.060Z,40.70
2024-01-19T01:48:06.275Z,38.70
2024-01-19T01:49:38.946Z,50.00
2024-01-19T01:51:13.160Z,40.70
2024-01-19T01:52:45.350Z,40.20
2024-01-19T01:54:17.798Z,40.90
2024-01-19T01:55:50.651Z,38.00
2024-01-19T01:57:26.564Z,40.80
2024-01-19T01:58:59.714Z,38.60
2024-01-19T02:00:34.030Z,37.10
2024-01-19T02:02:06.456Z,39.90
2024-01-19T02:03:40.709Z,31.10
2024-01-19T02:05:12.706Z,40.90
2024-01-19T02:06:44.729Z,31.20
2024-01-19T02:08:17.116Z,37.40
2024-01-19T02:09:49.370Z,43.30
2024-01-19T02:11:21.322Z,43.70
2024-01-19T02:12:54.405Z,37.50
2024-01-19T02:14:26.482Z,37.80
2024-01-19T02:16:01.343Z,39.00
2024-01-19T02:17:33.381Z,37.30
2024-01-19T02:19:05.562Z,39.00
2024-01-19T02:20:37.560Z,41.20
2024-01-19T02:22:10.672Z,34.90
2024-01-19T02:24:16.416Z,39.30
2024-01-19T02:25:49.598Z,35.10
2024-01-19T02:27:21.968Z,41.10
2024-01-19T02:28:56.364Z,32.60
2024-01-19T02:30:28.977Z,39.00
2024-01-19T02:32:01.036Z,35.60
2024-01-19T02:33:32.991Z,27.00
2024-01-19T02:35:07.034Z,28.80
2024-01-19T02:36:39.036Z,32.80
2024-01-19T02:38:11.033Z,28.40
2024-01-19T02:39:43.022Z,34.40
2024-01-19T02:41:15.166Z,25.00
2024-01-19T02:42:47.235Z,28.30
2024-01-19T02:44:19.131Z,30.30
2024-01-19T02:45:51.166Z,35.50
2024-01-19T02:47:23.025Z,34.10
2024-01-19T02:48:57.514Z,31.80
2024-01-19T02:50:29.865Z,27.80
2024-01-19T02:52:01.816Z,31.30
2024-01-19T02:53:33.827Z,25.60
2024-01-19T02:55:07.702Z,31.10
2024-01-19T02:56:39.762Z,26.50
2024-01-19T02:58:11.857Z,29.70
2024-01-19T02:59:43.858Z,34.00
2024-01-19T03:01:15.809Z,31.00
2024-01-19T03:02:47.833Z,28.00
2024-01-19T03:04:19.777Z,33.10
2024-01-19T03:05:51.867Z,32.00
2024-01-19T03:07:24.193Z,27.70
2024-01-19T03:08:57.126Z,29.00
2024-01-19T03:10:29.340Z,35.60
2024-01-19T03:12:01.335Z,33.40
2024-01-19T03:13:33.391Z,24.70
2024-01-19T03:15:06.268Z,35.80
2024-01-19T03:16:45.405Z,32.50
2024-01-19T03:18:17.637Z,37.10
2024-01-19T03:19:49.959Z,41.10
2024-01-19T03:21:23.090Z,38.60
2024-01-19T03:22:55.079Z,32.60
2024-01-19T03:24:29.209Z,45.60
2024-01-19T03:26:01.433Z,38.50
2024-01-19T03:27:33.612Z,33.30
2024-01-19T03:29:05.585Z,36.10
2024-01-19T03:30:38.745Z,37.00
2024-01-19T03:32:10.594Z,33.60
2024-01-19T03:33:42.980Z,35.00
2024-01-19T03:35:15.440Z,42.20
2024-01-19T03:36:48.129Z,43.50
2024-01-19T03:38:21.243Z,38.70
2024-01-19T03:39:53.120Z,45.00
2024-01-19T03:41:25.072Z,32.00
2024-01-19T03:42:57.033Z,43.60
2024-01-19T03:44:29.357Z,43.70
2024-01-19T03:46:02.430Z,33.20
2024-01-19T03:47:34.553Z,36.70
2024-01-19T03:49:06.654Z,42.20
2024-01-19T03:50:39.015Z,42.00
2024-01-19T03:52:12.257Z,42.10
2024-01-19T03:53:45.051Z,34.60
2024-01-19T03:55:18.988Z,38.90
2024-01-19T03:56:51.454Z,41.90
2024-01-19T03:58:23.462Z,47.60
2024-01-19T03:59:55.374Z,44.30
2024-01-19T04:01:27.342Z,41.40
2024-01-19T04:02:59.430Z,35.10
2024-01-19T04:04:31.503Z,42.30
2024-01-19T04:06:04.229Z,42.20
2024-01-19T04:07:37.542Z,38.10
2024-01-19T04:09:09.931Z,36.00
2024-01-19T04:11:16.441Z,49.00
2024-01-19T04:12:52.882Z,40.90
2024-01-19T04:14:24.876Z,44.30
2024-01-19T04:15:56.947Z,40.50
2024-01-19T04:17:29.000Z,46.20
2024-01-19T04:19:01.107Z,50.40
2024-01-19T04:20:33.392Z,51.90
2024-01-19T04:22:07.166Z,47.60
2024-01-19T04:23:39.513Z,44.20
2024-01-19T04:25:11.715Z,41.50
2024-01-19T04:26:44.313Z,48.40
2024-01-19T04:28:16.616Z,42.80
2024-01-19T04:29:49.672Z,43.90
2024-01-19T04:31:22.113Z,51.50
2024-01-19T04:32:54.128Z,41.00
2024-01-19T04:34:27.277Z,50.10
2024-01-19T04:35:59.606Z,47.60
2024-01-19T04:37:32.279Z,47.10
2024-01-19T04:39:05.341Z,42.70
2024-01-19T04:40:37.435Z,49.90
2024-01-19T04:42:09.362Z,42.80
2024-01-19T04:43:41.360Z,44.80
2024-01-19T04:45:13.344Z,47.00
2024-01-19T04:46:45.416Z,46.30
2024-01-19T04:48:17.748Z,48.80
2024-01-19T04:49:50.529Z,47.80
2024-01-19T04:51:22.400Z,44.90
2024-01-19T04:52:54.320Z,46.00
2024-01-19T04:54:27.237Z,43.10
2024-01-19T04:55:59.197Z,48.70
2024-01-19T04:57:31.146Z,45.90
2024-01-19T04:59:03.233Z,40.10
2024-01-19T05:00:35.608Z,45.90
2024-01-19T05:02:08.248Z,45.20
2024-01-19T05:03:42.542Z,41.50
2024-01-19T05:05:15.254Z,40.40
2024-01-19T05:06:47.501Z,44.80
2024-01-19T05:08:19.708Z,43.40
2024-01-19T05:09:52.689Z,39.30
2024-01-19T05:11:24.704Z,44.60
2024-01-19T05:12:56.849Z,51.20
2024-01-19T05:14:28.888Z,45.80
2024-01-19T05:16:00.969Z,45.50
2024-01-19T05:17:34.580Z,49.30
2024-01-19T05:19:08.017Z,39.20
2024-01-19T05:20:40.008Z,50.30
2024-01-19T05:22:12.171Z,44.50
2024-01-19T05:23:44.319Z,48.10
2024-01-19T05:25:19.833Z,41.10
2024-01-19T05:26:52.567Z,49.20
2024-01-19T05:28:25.251Z,46.50
2024-01-19T05:29:58.667Z,46.90
2024-01-19T05:31:30.741Z,54.00
2024-01-19T05:33:03.504Z,42.30
2024-01-19T05:34:35.758Z,44.60
2024-01-19T05:36:08.435Z,39.30
2024-01-19T05:37:40.671Z,38.10
2024-01-19T05:39:13.463Z,41.50
2024-01-19T05:40:45.538Z,45.30
2024-01-19T05:42:20.963Z,56.20
2024-01-19T05:43:53.083Z,39.80
2024-01-19T05:45:25.495Z,37.70
2024-01-19T05:46:57.368Z,51.20
2024-01-19T05:48:30.366Z,38.50
2024-01-19T05:50:10.729Z,40.10
2024-01-19T05:51:44.966Z,45.00
2024-01-19T05:53:16.922Z,37.50
2024-01-19T05:54:48.872Z,51.50
2024-01-19T05:56:22.397Z,46.90
2024-01-19T05:57:54.351Z,45.80
2024-01-19T05:59:32.062Z,50.20
2024-01-19T06:01:06.412Z,43.10
2024-01-19T06:02:38.780Z,37.80
2024-01-19T06:04:10.886Z,47.30
2024-01-19T06:05:42.836Z,48.00
2024-01-19T06:07:14.973Z,44.30
2024-01-19T06:08:47.133Z,43.20
2024-01-19T06:10:19.123Z,51.70
2024-01-19T06:11:51.840Z,50.10
2024-01-19T06:13:25.172Z,51.00
2024-01-19T06:14:57.428Z,41.90
2024-01-19T06:16:33.065Z,41.50
2024-01-19T06:18:05.412Z,44.70
2024-01-19T06:19:37.640Z,45.70
2024-01-19T06:21:20.405Z,37.50
2024-01-19T06:22:52.388Z,44.90
2024-01-19T06:24:26.612Z,42.60
2024-01-19T06:25:59.728Z,49.00
2024-01-19T06:27:31.845Z,48.10
2024-01-19T06:29:03.970Z,34.80
2024-01-19T06:30:38.308Z,42.20
2024-01-19T06:32:10.419Z,51.90
2024-01-19T06:33:42.519Z,43.10
2024-01-19T06:35:14.838Z,45.40
2024-01-19T06:36:48.093Z,44.40
2024-01-19T06:38:21.698Z,42.10
2024-01-19T06:39:55.934Z,48.90
2024-01-19T06:41:28.054Z,37.20
2024-01-19T06:43:01.385Z,36.50
2024-01-19T06:44:33.767Z,46.90
2024-01-19T06:46:08.308Z,42.20
2024-01-19T06:47:40.467Z,43.90
2024-01-19T06:49:14.012Z,43.20
2024-01-19T06:50:46.223Z,39.10
2024-01-19T06:52:18.336Z,46.30
2024-01-19T06:53:50.549Z,54.60
2024-01-19T06:55:22.557Z,42.80
2024-01-19T06:56:54.573Z,38.20
2024-01-19T06:58:26.648Z,43.30
2024-01-19T06:59:58.791Z,46.80
2024-01-19T07:01:31.368Z,45.00
2024-01-19T07:03:05.197Z,47.40
2024-01-19T07:04:37.741Z,41.80
2024-01-19T07:06:09.757Z,43.50
2024-01-19T07:07:41.814Z,47.10
2024-01-19T07:09:16.067Z,46.20
2024-01-19T07:10:48.076Z,43.70
2024-01-19T07:12:20.528Z,43.60
2024-01-19T07:13:52.646Z,43.30
2024-01-19T07:15:24.799Z,44.50
2024-01-19T07:16:56.824Z,43.40
2024-01-19T07:18:28.942Z,49.20
2024-01-19T07:20:04.724Z,44.50
2024-01-19T07:21:42.781Z,45.20
2024-01-19T07:23:14.746Z,49.70
2024-01-19T07:24:46.756Z,45.30
2024-01-19T07:26:21.230Z,47.80
2024-01-19T07:27:53.352Z,50.80
2024-01-19T07:29:25.951Z,38.40
2024-01-19T07:30:57.947Z,43.10
2024-01-19T07:32:47.258Z,42.00
2024-01-19T07:34:27.208Z,47.50
2024-01-19T07:35:59.387Z,47.80
2024-01-19T07:37:31.583Z,43.10
2024-01-19T07:39:05.112Z,42.00
2024-01-19T07:40:37.913Z,43.70
2024-01-19T07:42:10.257Z,44.10
2024-01-19T07:43:42.314Z,43.20
2024-01-19T07:45:14.739Z,56.80
2024-01-19T07:46:47.096Z,49.40
2024-01-19T07:48:19.442Z,53.40
2024-01-19T07:49:51.833Z,48.60
2024-01-19T07:51:24.110Z,44.20
2024-01-19T07:53:03.724Z,46.60
2024-01-19T07:54:39.057Z,45.20
2024-01-19T07:56:12.752Z,45.50
2024-01-19T07:57:52.391Z,37.40
2024-01-19T07:59:26.309Z,41.50
2024-01-19T08:01:00.473Z,47.40
2024-01-19T08:02:45.081Z,50.90
2024-01-19T08:04:17.050Z,56.00
2024-01-19T08:05:49.166Z,42.90
2024-01-19T08:07:21.771Z,50.10
2024-01-19T08:08:54.309Z,51.50
2024-01-19T08:10:26.679Z,48.20
2024-01-19T08:11:59.720Z,46.80
2024-01-19T08:13:32.111Z,48.00
2024-01-19T08:15:06.712Z,46.90
2024-01-19T08:16:38.575Z,48.40
2024-01-19T08:18:12.112Z,48.30
2024-01-19T08:19:44.376Z,49.70
2024-01-19T08:21:16.471Z,44.50
2024-01-19T08:22:48.936Z,33.50
2024-01-19T08:24:21.090Z,45.60
2024-01-19T08:25:53.002Z,42.60
2024-01-19T08:27:25.013Z,46.70
2024-01-19T08:28:57.100Z,46.00
2024-01-19T08:30:29.709Z,40.40
2024-01-19T08:32:01.839Z,41.20
2024-01-19T08:33:33.903Z,44.00
2024-01-19T08:35:09.833Z,41.50
2024-01-19T08:36:43.115Z,46.30
2024-01-19T08:38:15.096Z,44.80
2024-01-19T08:39:47.203Z,45.50
2024-01-19T08:41:19.478Z,41.80
2024-01-19T08:42:53.501Z,42.10
2024-01-19T08:44:25.562Z,41.60
2024-01-19T08:45:58.136Z,46.10
2024-01-19T08:47:30.495Z,42.50
2024-01-19T08:49:02.449Z,43.40
2024-01-19T08:50:34.757Z,37.90
2024-01-19T08:52:06.894Z,44.30
2024-01-19T08:53:38.843Z,43.20
2024-01-19T08:55:11.199Z,44.70
2024-01-19T08:56:49.611Z,41.60
2024-01-19T08:58:30.388Z,40.30
2024-01-19T09:00:06.120Z,45.00
2024-01-19T09:01:40.577Z,41.10
2024-01-19T09:03:12.637Z,46.90
2024-01-19T09:04:44.956Z,45.30
2024-01-19T09:06:17.834Z,37.00
2024-01-19T09:07:50.908Z,38.70
2024-01-19T09:09:23.701Z,49.10
2024-01-19T09:10:55.732Z,43.00
2024-01-19T09:12:31.198Z,43.50
2024-01-19T09:14:03.949Z,52.20
2024-01-19T09:15:35.850Z,44.40
2024-01-19T09:17:08.881Z,49.10
2024-01-19T09:18:43.128Z,47.40
2024-01-19T09:20:15.583Z,49.50
2024-01-19T09:21:49.015Z,45.50
2024-01-19T09:23:22.136Z,56.70
2024-01-19T09:24:54.083Z,42.30
2024-01-19T09:26:26.459Z,42.90
2024-01-19T09:27:58.645Z,43.30
2024-01-19T09:29:31.897Z,43.70
2024-01-19T09:31:04.074Z,41.10
2024-01-19T09:32:36.136Z,38.30
2024-01-19T09:34:08.337Z,39.70
2024-01-19T09:35:40.497Z,34.80
2024-01-19T09:37:13.242Z,40.80
2024-01-19T09:38:45.621Z,38.00
2024-01-19T09:40:20.260Z,45.40
2024-01-19T09:42:08.297Z,39.10
2024-01-19T09:43:46.395Z,38.30
2024-01-19T09:45:20.617Z,38.00
2024-01-19T09:46:53.669Z,47.80
2024-01-19T09:48:33.854Z,42.40
2024-01-19T09:50:07.509Z,40.50
2024-01-19T09:52:29.904Z,43.60
2024-01-19T09:54:11.294Z,33.80
2024-01-19T09:55:43.661Z,38.60
2024-01-19T09:57:15.654Z,40.20
2024-01-19T09:58:53.043Z,48.90
2024-01-19T10:00:28.526Z,42.90
2024-01-19T10:02:02.185Z,44.40
2024-01-19T10:03:35.831Z,45.20
2024-01-19T10:05:14.631Z,40.50
2024-01-19T10:06:48.520Z,45.50
2024-01-19T10:08:21.189Z,43.80
2024-01-19T10:09:55.149Z,41.00
2024-01-19T10:11:32.121Z,43.10
2024-01-19T10:13:04.321Z,39.10
2024-01-19T10:14:36.279Z,47.30
2024-01-19T10:16:09.251Z,42.40
2024-01-19T10:17:46.732Z,34.60
2024-01-19T10:19:23.323Z,43.80
2024-01-19T10:20:55.588Z,43.30
2024-01-19T10:22:30.219Z,44.40
2024-01-19T10:24:16.484Z,44.10
2024-01-19T10:25:51.083Z,39.70
2024-01-19T10:27:39.988Z,41.00
2024-01-19T10:29:15.615Z,37.90
2024-01-19T10:30:47.542Z,42.60
2024-01-19T10:32:23.348Z,39.50
2024-01-19T10:34:00.776Z,43.10
2024-01-19T10:35:41.607Z,43.00
2024-01-19T10:37:22.678Z,37.20
2024-01-19T10:38:54.752Z,40.90
2024-01-19T10:40:31.769Z,39.30
2024-01-19T10:42:09.991Z,38.00
2024-01-19T10:43:42.172Z,28.80
2024-01-19T10:45:20.260Z,35.80
2024-01-19T10:46:52.657Z,39.00
2024-01-19T10:48:28.148Z,33.70
2024-01-19T10:50:09.542Z,35.70
2024-01-19T10:51:43.734Z,36.10
2024-01-19T10:53:17.487Z,37.00
2024-01-19T10:54:51.929Z,30.70
2024-01-19T10:56:26.115Z,35.80
2024-01-19T10:58:07.552Z,34.50
2024-01-19T10:59:40.861Z,38.80
2024-01-19T11:01:19.218Z,32.00
2024-01-19T11:02:58.234Z,24.00
2024-01-19T11:04:30.792Z,35.50
2024-01-19T11:06:04.850Z,34.00
2024-01-19T11:07:38.169Z,35.00
2024-01-19T11:09:10.122Z,35.90
2024-01-19T11:10:49.633Z,33.70
2024-01-19T11:12:22.723Z,32.10
2024-01-19T11:14:02.113Z,31.00
2024-01-19T11:15:42.442Z,33.80
2024-01-19T11:17:14.976Z,30.70
2024-01-19T11:18:49.431Z,29.00
2024-01-19T11:20:25.920Z,37.20
2024-01-19T11:22:00.489Z,35.40
2024-01-19T11:23:36.046Z,38.50
2024-01-19T11:25:17.182Z,35.50
2024-01-19T11:27:24.476Z,41.40
2024-01-19T11:29:03.278Z,39.90
2024-01-19T11:31:08.368Z,32.90
2024-01-19T11:32:40.592Z,37.80
2024-01-19T11:34:52.177Z,34.90
2024-01-19T11:36:45.410Z,33.30
2024-01-19T11:38:46.242Z,36.00
2024-01-19T11:40:24.499Z,32.50
2024-01-19T11:41:56.838Z,31.30
2024-01-19T11:43:44.988Z,40.40
2024-01-19T11:45:43.956Z,30.20
2024-01-19T11:47:37.717Z,33.70
2024-01-19T11:49:39.066Z,38.90
2024-01-19T11:51:35.870Z,35.70
2024-01-19T11:53:09.726Z,32.60
2024-01-19T11:54:43.635Z,37.30
2024-01-19T11:56:23.382Z,39.70
2024-01-19T11:57:57.087Z,39.90
2024-01-19T11:59:29.944Z,33.80
2024-01-19T12:01:05.212Z,31.50
2024-01-19T12:02:37.439Z,36.90
2024-01-19T12:04:16.194Z,36.80
2024-01-19T12:05:55.899Z,36.90
2024-01-19T12:07:28.073Z,42.00
2024-01-19T12:09:08.376Z,36.60
2024-01-19T12:10:40.596Z,39.60
2024-01-19T12:12:13.014Z,31.70
2024-01-19T12:13:55.182Z,42.90
2024-01-19T12:15:31.653Z,37.80
2024-01-19T12:17:04.275Z,34.90
2024-01-19T12:18:40.495Z,36.80
2024-01-19T12:20:19.799Z,35.80
2024-01-19T12:21:52.040Z,30.60
2024-01-19T12:23:30.515Z,33.50
2024-01-19T12:25:27.492Z,30.00
2024-01-19T12:26:59.550Z,34.20
2024-01-19T12:28:34.612Z,34.60
2024-01-19T12:30:20.652Z,34.10
2024-01-19T12:31:52.667Z,31.20
2024-01-19T12:33:36.397Z,34.00
2024-01-19T12:35:09.289Z,31.00
2024-01-19T12:36:41.616Z,30.90
2024-01-19T12:38:16.502Z,29.30
2024-01-19T12:39:51.078Z,24.70
2024-01-19T12:41:23.190Z,26.40
2024-01-19T12:43:04.949Z,28.40
2024-01-19T12:44:37.020Z,28.90
2024-01-19T12:46:10.780Z,22.40
2024-01-19T12:47:47.925Z,35.70
2024-01-19T12:49:19.942Z,26.70
2024-01-19T12:50:51.963Z,26.60
2024-01-19T12:52:23.905Z,27.60
2024-01-19T12:53:56.944Z,26.10
2024-01-19T12:55:34.831Z,19.70
2024-01-19T12:57:18.030Z,33.70
2024-01-19T12:58:49.961Z,29.10
2024-01-19T13:00:28.979Z,21.80
2024-01-19T13:02:01.113Z,25.00
2024-01-19T13:03:33.135Z,25.30
2024-01-19T13:05:07.869Z,36.00
2024-01-19T13:06:46.897Z,29.10
2024-01-19T13:08:21.881Z,23.60
2024-01-19T13:10:07.147Z,28.30
2024-01-19T13:11:39.121Z,28.50
2024-01-19T13:13:20.445Z,25.10
2024-01-19T13:14:52.401Z,27.70
2024-01-19T13:16:24.362Z,28.60
2024-01-19T13:18:19.304Z,24.70
2024-01-19T13:19:52.356Z,25.90
2024-01-19T13:21:26.133Z,28.00
2024-01-19T13:22:58.048Z,25.00
2024-01-19T13:24:30.151Z,27.40
2024-01-19T13:26:03.181Z,28.00
2024-01-19T13:27:36.742Z,27.60
2024-01-19T13:29:08.953Z,28.50
2024-01-19T13:30:40.947Z,29.50
2024-01-19T13:32:12.980Z,28.90
2024-01-19T13:33:47.646Z,27.40
2024-01-19T13:35:19.672Z,28.30
2024-01-19T13:36:51.570Z,26.00
2024-01-19T13:38:26.363Z,21.90
2024-01-19T13:40:00.504Z,36.80
2024-01-19T13:41:32.522Z,24.90
2024-01-19T13:43:06.384Z,29.90
2024-01-19T13:44:38.484Z,26.50
2024-01-19T13:46:10.441Z,26.00
2024-01-19T13:47:42.297Z,26.70
2024-01-19T13:49:14.163Z,26.70
2024-01-19T13:50:46.340Z,31.20
2024-01-19T13:52:18.369Z,27.10
2024-01-19T13:53:50.809Z,26.20
2024-01-19T13:55:22.830Z,22.60
2024-01-19T13:56:54.988Z,28.30
2024-01-19T13:58:26.824Z,30.20
2024-01-19T14:00:00.367Z,24.50
2024-01-19T14:01:32.489Z,29.20
2024-01-19T14:03:06.952Z,26.60
2024-01-19T14:04:40.348Z,26.10
2024-01-19T14:06:15.191Z,25.20
2024-01-19T14:07:47.316Z,25.10
2024-01-19T14:09:19.489Z,26.40
2024-01-19T14:10:51.612Z,25.60
2024-01-19T14:12:24.070Z,28.00
2024-01-19T14:13:56.188Z,27.40
2024-01-19T14:15:31.543Z,27.00
2024-01-19T14:17:05.901Z,25.90
2024-01-19T14:18:39.388Z,26.60
2024-01-19T14:20:12.497Z,27.80
2024-01-19T14:21:44.546Z,28.20
2024-01-19T14:23:16.511Z,30.80
2024-01-19T14:24:48.556Z,27.50
2024-01-19T14:26:24.845Z,27.90
2024-01-19T14:27:56.902Z,31.30
2024-01-19T14:29:32.126Z,32.30
2024-01-19T14:31:05.707Z,30.80
2024-01-19T14:32:38.891Z,21.80
2024-01-19T14:34:11.749Z,26.20
2024-01-19T14:35:45.854Z,18.40
2024-01-19T14:37:17.805Z,27.10
2024-01-19T14:38:49.757Z,31.60
2024-01-19T14:40:21.701Z,29.10
2024-01-19T14:41:54.459Z,29.80
2024-01-19T14:43:26.344Z,28.50
2024-01-19T14:44:58.435Z,25.60
2024-01-19T14:46:33.016Z,31.70
2024-01-19T14:48:05.763Z,26.30
2024-01-19T14:49:39.366Z,32.10
2024-01-19T14:51:12.972Z,33.40
2024-01-19T14:52:46.620Z,28.90
2024-01-19T14:54:20.278Z,29.20
2024-01-19T14:55:52.545Z,29.10
2024-01-19T14:57:25.047Z,30.70
2024-01-19T14:58:57.738Z,28.10
2024-01-19T15:00:34.196Z,33.40
2024-01-19T15:02:07.087Z,30.90
2024-01-19T15:03:39.864Z,30.50
2024-01-19T15:05:11.970Z,28.60
2024-01-19T15:06:46.992Z,31.10
2024-01-19T15:08:19.745Z,32.30
2024-01-19T15:09:51.721Z,27.60
2024-01-19T15:11:23.689Z,29.70
2024-01-19T15:12:55.656Z,32.40
2024-01-19T15:14:28.197Z,34.80
2024-01-19T15:16:00.043Z,31.60
2024-01-19T15:17:32.019Z,28.30
2024-01-19T15:19:05.887Z,32.00
2024-01-19T15:20:38.164Z,29.90
2024-01-19T15:22:10.056Z,34.50
2024-01-19T15:23:43.763Z,31.90
2024-01-19T15:25:16.385Z,31.10
2024-01-19T15:26:49.147Z,38.40
2024-01-19T15:28:21.142Z,36.10
2024-01-19T15:29:52.995Z,30.20
2024-01-19T15:31:25.792Z,31.10
2024-01-19T15:32:57.844Z,32.30
2024-01-19T15:34:29.937Z,31.10
2024-01-19T15:36:02.126Z,35.80
2024-01-19T15:37:35.195Z,31.60
2024-01-19T15:39:08.562Z,30.80
2024-01-19T15:40:40.773Z,31.90
2024-01-19T15:42:12.848Z,28.10
2024-01-19T15:43:44.714Z,32.60
2024-01-19T15:45:17.280Z,30.90
2024-01-19T15:46:49.254Z,38.00
2024-01-19T15:48:23.585Z,32.10
2024-01-19T15:49:55.689Z,32.70
2024-01-19T15:51:29.042Z,32.00
2024-01-19T15:53:01.009Z,31.70
2024-01-19T15:54:32.976Z,35.80
2024-01-19T15:56:06.609Z,36.40
2024-01-19T15:57:38.716Z,32.50
2024-01-19T15:59:10.700Z,38.20
2024-01-19T16:00:42.680Z,34.20
2024-01-19T16:02:14.893Z,41.10
2024-01-19T16:03:48.702Z,39.00
2024-01-19T16:05:21.365Z,36.80
2024-01-19T16:06:53.409Z,37.40
2024-01-19T16:08:25.395Z,40.30
2024-01-19T16:09:57.306Z,36.10
2024-01-19T16:11:31.174Z,43.80
2024-01-19T16:13:04.345Z,36.80
2024-01-19T16:14:37.683Z,38.30
2024-01-19T16:16:11.649Z,38.50
2024-01-19T16:17:43.761Z,24.30
2024-01-19T16:19:16.002Z,35.70
2024-01-19T16:20:48.826Z,34.10
2024-01-19T16:22:23.539Z,34.80
2024-01-19T16:23:56.261Z,39.30
2024-01-19T16:25:28.340Z,28.30
2024-01-19T16:27:02.046Z,35.20
2024-01-19T16:28:34.004Z,34.70
2024-01-19T16:30:07.249Z,36.40
2024-01-19T16:31:39.367Z,36.80
2024-01-19T16:33:14.525Z,34.40
2024-01-19T16:34:46.554Z,28.60
2024-01-19T16:36:18.788Z,33.10
2024-01-19T16:37:50.922Z,35.60
2024-01-19T16:39:24.565Z,31.00
2024-01-19T16:40:57.732Z,36.70
2024-01-19T16:42:29.844Z,39.20
2024-01-19T16:44:04.919Z,34.20
2024-01-19T16:45:37.104Z,38.80
2024-01-19T16:47:09.001Z,33.10
2024-01-19T16:48:43.186Z,35.30
2024-01-19T16:50:17.544Z,35.70
2024-01-19T16:51:49.568Z,33.00
2024-01-19T16:53:21.567Z,34.50
2024-01-19T16:54:53.513Z,33.90
2024-01-19T16:56:26.640Z,42.00
2024-01-19T16:57:58.573Z,33.10
2024-01-19T16:59:34.360Z,34.50
2024-01-19T17:01:06.473Z,32.70
2024-01-19T17:02:38.835Z,33.70
2024-01-19T17:04:10.835Z,25.80
2024-01-19T17:05:42.904Z,34.00
2024-01-19T17:07:14.876Z,31.00
2024-01-19T17:08:46.701Z,34.10
2024-01-19T17:10:20.055Z,21.40
2024-01-19T17:11:52.047Z,38.80
2024-01-19T17:13:24.049Z,34.80
2024-01-19T17:14:58.156Z,33.00
2024-01-19T17:16:30.140Z,32.30
2024-01-19T17:18:04.160Z,35.20
2024-01-19T17:19:36.597Z,36.70
2024-01-19T17:21:08.600Z,38.50
2024-01-19T17:22:41.871Z,26.60
2024-01-19T17:24:14.489Z,35.40
2024-01-19T17:25:47.376Z,31.40
2024-01-19T17:27:19.718Z,31.60
2024-01-19T17:28:53.288Z,36.90
2024-01-19T17:30:28.544Z,35.60
2024-01-19T17:32:00.521Z,28.00
2024-01-19T17:33:32.479Z,36.70
2024-01-19T17:35:05.674Z,34.80
2024-01-19T17:36:38.430Z,38.20
2024-01-19T17:38:13.928Z,38.10
2024-01-19T17:39:46.109Z,31.20
2024-01-19T17:41:18.815Z,41.70
2024-01-19T17:42:52.049Z,41.70
2024-01-19T17:44:24.335Z,40.10
2024-01-19T17:45:56.335Z,42.20
2024-01-19T17:47:31.886Z,40.90
2024-01-19T17:49:04.541Z,40.20
2024-01-19T17:50:36.704Z,45.10
2024-01-19T17:52:10.215Z,41.50
2024-01-19T17:53:42.721Z,35.60
2024-01-19T17:55:14.967Z,36.00
2024-01-19T17:56:47.035Z,35.90
2024-01-19T17:58:22.594Z,39.80
2024-01-19T17:59:56.693Z,39.90
2024-01-19T18:01:30.442Z,40.50
2024-01-19T18:03:06.663Z,34.90
2024-01-19T18:04:40.513Z,30.70
2024-01-19T18:06:15.628Z,33.80
2024-01-19T18:07:47.968Z,34.40
2024-01-19T18:09:21.151Z,41.10
2024-01-19T18:10:53.953Z,31.90
2024-01-19T18:12:26.960Z,36.70
2024-01-19T18:14:00.454Z,33.60
2024-01-19T18:15:33.514Z,33.90
2024-01-19T18:17:06.273Z,42.70
2024-01-19T18:18:38.417Z,36.00
2024-01-19T18:20:11.685Z,39.80
2024-01-19T18:21:44.212Z,42.70
2024-01-19T18:23:16.872Z,39.00
2024-01-19T18:24:49.228Z,44.90
2024-01-19T18:26:27.461Z,46.60
2024-01-19T18:28:00.331Z,42.70
2024-01-19T18:29:32.296Z,35.40
2024-01-19T18:31:04.773Z,43.60
2024-01-19T18:32:36.909Z,34.80
2024-01-19T18:34:09.179Z,37.60
2024-01-19T18:35:44.346Z,42.80
2024-01-19T18:37:17.958Z,41.40
2024-01-19T18:38:49.938Z,42.30
2024-01-19T18:40:22.811Z,37.40
2024-01-19T18:41:54.812Z,35.20
2024-01-19T18:43:27.024Z,38.00
2024-01-19T18:44:59.487Z,36.20
2024-01-19T18:46:31.619Z,39.40
2024-01-19T18:48:05.572Z,41.90
2024-01-19T18:49:38.113Z,44.90
2024-01-19T18:51:10.954Z,44.40
2024-01-19T18:52:45.089Z,35.50
2024-01-19T18:54:17.817Z,43.10
2024-01-19T18:55:54.505Z,40.00
2024-01-19T18:57:27.692Z,40.60
2024-01-19T18:58:59.815Z,39.90
2024-01-19T19:00:32.059Z,36.20
2024-01-19T19:02:05.450Z,38.80
2024-01-19T19:03:37.449Z,43.40
2024-01-19T19:05:09.917Z,44.20
2024-01-19T19:06:42.249Z,45.00
2024-01-19T19:08:14.702Z,39.20
2024-01-19T19:09:46.843Z,39.00
2024-01-19T19:11:20.589Z,41.90
2024-01-19T19:12:54.414Z,40.40
2024-01-19T19:14:31.056Z,41.40
2024-01-19T19:16:03.831Z,45.70
2024-01-19T19:17:36.754Z,36.30
2024-01-19T19:19:09.352Z,39.60
2024-01-19T19:20:41.297Z,37.40
2024-01-19T19:22:15.037Z,43.40
2024-01-19T19:23:48.352Z,42.60
2024-01-19T19:25:20.295Z,38.90
2024-01-19T19:26:52.197Z,41.40
2024-01-19T19:28:25.416Z,43.70
2024-01-19T19:29:57.431Z,35.80
2024-01-19T19:31:29.439Z,40.60
2024-01-19T19:33:02.529Z,40.20
2024-01-19T19:34:37.075Z,40.40
2024-01-19T19:36:11.659Z,25.10
2024-01-19T19:37:43.745Z,37.70
2024-01-19T19:39:15.677Z,38.30
2024-01-19T19:40:47.733Z,42.50
2024-01-19T19:42:21.369Z,43.80
2024-01-19T19:43:53.559Z,43.40
2024-01-19T19:45:25.507Z,35.50
2024-01-19T19:46:57.477Z,38.10
2024-01-19T19:48:29.431Z,46.00
2024-01-19T19:50:03.128Z,36.50
2024-01-19T19:51:37.411Z,43.80
2024-01-19T19:53:14.619Z,40.60
2024-01-19T19:54:47.249Z,40.00
2024-01-19T19:56:19.423Z,37.90
2024-01-19T19:57:52.323Z,25.40
2024-01-19T19:59:25.023Z,40.10
2024-01-19T20:01:02.226Z,38.60
2024-01-19T20:02:34.401Z,42.30
2024-01-19T20:04:08.719Z,42.00
2024-01-19T20:05:40.651Z,39.90
2024-01-19T20:07:12.549Z,41.50
2024-01-19T20:08:44.739Z,37.80